createdAt,value
2019-05-09T00:00:07.629Z,1.10
2019-05-09T00:01:07.658Z,1.10
2019-05-09T00:02:07.695Z,1.00
2019-05-09T00:03:07.718Z,1.10
2019-05-09T00:04:07.779Z,0.90
2019-05-09T00:05:07.776Z,1.10
2019-05-09T00:06:07.811Z,1.10
2019-05-09T00:07:07.840Z,1.00
2019-05-09T00:08:07.866Z,0.90
2019-05-09T00:09:07.896Z,1.00
2019-05-09T00:10:07.927Z,1.00
2019-05-09T00:11:07.955Z,0.80
2019-05-09T00:12:07.984Z,1.10
2019-05-09T00:13:08.014Z,1.10
2019-05-09T00:14:08.044Z,0.90
2019-05-09T00:15:08.072Z,1.00
2019-05-09T00:16:08.103Z,1.20
2019-05-09T00:17:08.131Z,1.00
2019-05-09T00:18:08.160Z,1.20
2019-05-09T00:19:08.393Z,1.30
2019-05-09T00:20:08.220Z,1.10
2019-05-09T00:21:08.251Z,1.00
2019-05-09T00:22:08.280Z,1.10
2019-05-09T00:23:08.309Z,1.40
2019-05-09T00:24:08.337Z,1.30
2019-05-09T00:25:08.368Z,1.10
2019-05-09T00:26:08.397Z,1.30
2019-05-09T00:27:08.426Z,1.30
2019-05-09T00:28:08.658Z,1.20
2019-05-09T00:29:08.484Z,1.30
2019-05-09T00:30:08.544Z,1.30
2019-05-09T00:31:13.525Z,1.50
2019-05-09T00:32:08.574Z,1.40
2019-05-09T00:33:08.604Z,1.60
2019-05-09T00:34:08.633Z,1.20
2019-05-09T00:35:08.661Z,1.10
2019-05-09T00:36:10.043Z,1.00
2019-05-09T00:37:08.722Z,1.10
2019-05-09T00:38:08.754Z,1.30
2019-05-09T00:39:08.778Z,1.30
2019-05-09T00:40:08.806Z,1.40
2019-05-09T00:41:08.868Z,1.20
2019-05-09T00:42:08.897Z,1.30
2019-05-09T00:43:08.894Z,1.40
2019-05-09T00:44:08.923Z,1.30
2019-05-09T00:45:08.953Z,1.40
2019-05-09T00:46:08.981Z,1.40
2019-05-09T00:47:09.012Z,1.60
2019-05-09T00:48:09.039Z,1.50
2019-05-09T00:49:09.068Z,1.70
2019-05-09T00:50:09.098Z,1.60
2019-05-09T00:51:09.127Z,1.50
2019-05-09T00:52:09.186Z,1.60
2019-05-09T00:53:09.184Z,1.50
2019-05-09T00:54:09.213Z,1.60
2019-05-09T00:55:09.243Z,1.60
2019-05-09T00:56:09.270Z,1.50
2019-05-09T00:57:09.298Z,1.20
2019-05-09T00:58:09.327Z,1.30
2019-05-09T00:59:10.166Z,1.50
2019-05-09T01:00:09.385Z,1.60
2019-05-09T01:01:09.415Z,1.40
2019-05-09T01:02:09.442Z,1.70
2019-05-09T01:03:09.503Z,1.40
2019-05-09T01:04:09.530Z,1.30
2019-05-09T01:05:09.527Z,1.40
2019-05-09T01:06:09.556Z,1.30
2019-05-09T01:07:09.586Z,1.60
2019-05-09T01:08:09.615Z,1.60
2019-05-09T01:09:09.642Z,1.60
2019-05-09T01:10:09.670Z,1.50
2019-05-09T01:11:14.685Z,1.50
2019-05-09T01:12:09.728Z,1.40
2019-05-09T01:13:09.756Z,1.60
2019-05-09T01:14:09.785Z,1.30
2019-05-09T01:15:09.813Z,1.40
2019-05-09T01:16:09.841Z,1.40
2019-05-09T01:17:09.872Z,1.70
2019-05-09T01:18:09.899Z,1.70
2019-05-09T01:19:09.926Z,1.30
2019-05-09T01:20:09.953Z,1.40
2019-05-09T01:21:09.982Z,1.60
2019-05-09T01:22:54.088Z,1.60
2019-05-09T01:23:53.931Z,1.40
2019-05-09T01:24:53.395Z,1.30
2019-05-09T01:25:53.034Z,1.30
2019-05-09T01:26:54.192Z,1.60
2019-05-09T01:27:53.889Z,1.20
2019-05-09T01:28:53.835Z,1.40
2019-05-09T01:29:53.513Z,1.30
2019-05-09T01:30:53.273Z,1.30
2019-05-09T01:31:54.115Z,1.30
2019-05-09T01:32:53.939Z,1.40
2019-05-09T01:33:53.463Z,1.40
2019-05-09T01:35:54.146Z,1.90
2019-05-09T01:36:54.063Z,1.50
2019-05-09T01:37:53.934Z,1.70
2019-05-09T01:38:55.690Z,1.80
2019-05-09T01:39:53.462Z,1.60
2019-05-09T01:40:53.391Z,1.90
2019-05-09T01:41:53.353Z,1.90
2019-05-09T01:43:53.715Z,2.20
2019-05-09T01:44:53.390Z,2.30
2019-05-09T01:45:54.010Z,2.20
2019-05-09T01:46:54.026Z,2.20
2019-05-09T01:47:53.897Z,2.50
2019-05-09T01:48:55.970Z,2.20
2019-05-09T01:49:53.861Z,2.30
2019-05-09T01:50:53.811Z,2.40
2019-05-09T01:51:53.823Z,2.80
2019-05-09T01:52:53.498Z,2.50
2019-05-09T01:53:53.492Z,2.00
2019-05-09T01:54:54.116Z,2.20
2019-05-09T01:55:53.992Z,2.20
2019-05-09T01:56:53.806Z,1.80
2019-05-09T01:57:53.931Z,1.90
2019-05-09T01:58:54.027Z,2.00
2019-05-09T01:59:53.655Z,1.90
2019-05-09T02:00:54.004Z,2.00
2019-05-09T02:01:54.220Z,1.70
2019-05-09T02:04:53.824Z,2.00
2019-05-09T02:05:53.820Z,2.30
2019-05-09T02:06:53.968Z,2.40
2019-05-09T02:07:54.290Z,2.50
2019-05-09T02:08:54.644Z,2.60
2019-05-09T02:09:54.080Z,2.20
2019-05-09T02:10:54.305Z,2.60
2019-05-09T02:11:54.657Z,2.30
2019-05-09T02:12:54.251Z,2.30
2019-05-09T02:14:54.312Z,2.50
2019-05-09T02:15:54.136Z,1.90
2019-05-09T02:18:01.379Z,2.10
2019-05-09T02:20:54.544Z,2.00
2019-05-09T02:21:54.700Z,2.60
2019-05-09T02:22:54.730Z,2.10
2019-05-09T02:23:54.354Z,2.30
2019-05-09T02:24:54.587Z,2.60
2019-05-09T02:25:55.289Z,2.40
2019-05-09T02:33:54.599Z,2.70
2019-05-09T02:36:00.824Z,2.70
2019-05-09T02:36:54.691Z,2.70
2019-05-09T02:37:54.945Z,3.00
2019-05-09T02:40:55.233Z,2.90
2019-05-09T02:43:58.385Z,2.80
2019-05-09T02:44:54.958Z,3.20
2019-05-09T02:45:54.935Z,2.80
2019-05-09T02:46:54.966Z,3.10
2019-05-09T02:47:54.992Z,2.60
2019-05-09T02:48:55.048Z,2.40
2019-05-09T02:50:55.076Z,2.20
2019-05-09T02:51:55.139Z,2.60
2019-05-09T02:53:58.314Z,2.40
2019-05-09T02:54:58.098Z,2.10
2019-05-09T02:55:58.125Z,2.30
2019-05-09T02:56:57.858Z,2.20
2019-05-09T02:57:55.306Z,2.60
2019-05-09T02:58:58.672Z,2.50
2019-05-09T02:59:58.962Z,2.60
2019-05-09T03:04:57.920Z,2.90
2019-05-09T03:05:56.131Z,2.40
2019-05-09T03:06:59.541Z,2.50
2019-05-09T03:07:57.816Z,2.70
2019-05-09T03:08:59.420Z,2.40
2019-05-09T03:11:59.021Z,2.40
2019-05-09T03:12:59.431Z,2.60
2019-05-09T03:15:58.623Z,2.50
2019-05-09T03:16:58.766Z,2.80
2019-05-09T03:21:58.466Z,2.20
2019-05-09T03:24:58.871Z,1.80
2019-05-09T03:25:58.853Z,1.90
2019-05-09T03:26:59.414Z,2.20
2019-05-09T03:27:58.684Z,2.10
2019-05-09T03:28:59.178Z,2.00
2019-05-09T03:32:00.030Z,2.20
2019-05-09T03:32:59.685Z,2.30
2019-05-09T03:33:59.542Z,3.00
2019-05-09T03:37:57.251Z,3.30
2019-05-09T03:38:57.841Z,3.10
2019-05-09T03:39:58.099Z,2.80
2019-05-09T03:41:57.476Z,3.60
2019-05-09T03:44:58.201Z,4.40
2019-05-09T03:48:58.251Z,4.00
2019-05-09T03:49:58.642Z,4.10
2019-05-09T03:50:57.728Z,4.10
2019-05-09T03:51:58.462Z,4.10
2019-05-09T03:52:57.981Z,3.00
2019-05-09T03:53:57.628Z,3.00
2019-05-09T03:54:57.935Z,3.30
2019-05-09T03:55:57.609Z,3.10
2019-05-09T03:56:57.285Z,3.80
2019-05-09T03:57:58.097Z,3.70
2019-05-09T03:58:57.845Z,3.70
2019-05-09T03:59:57.317Z,4.40
2019-05-09T04:00:58.008Z,4.20
2019-05-09T04:01:59.035Z,4.20
2019-05-09T04:02:58.053Z,4.00
2019-05-09T04:03:58.441Z,3.90
2019-05-09T04:04:57.755Z,4.30
2019-05-09T04:06:02.702Z,3.10
2019-05-09T04:06:58.125Z,2.90
2019-05-09T04:07:58.259Z,3.00
2019-05-09T04:08:58.501Z,3.00
2019-05-09T04:09:58.494Z,2.70
2019-05-09T04:10:58.593Z,3.00
2019-05-09T04:11:58.322Z,3.70
2019-05-09T04:12:59.531Z,3.70
2019-05-09T04:13:58.138Z,3.60
2019-05-09T04:14:58.406Z,3.20
2019-05-09T04:16:57.675Z,3.40
2019-05-09T04:17:57.970Z,3.30
2019-05-09T04:18:58.161Z,2.70
2019-05-09T04:19:57.863Z,2.90
2019-05-09T04:20:57.623Z,3.10
2019-05-09T04:21:57.788Z,3.20
2019-05-09T04:22:59.536Z,3.60
2019-05-09T04:23:58.431Z,4.00
2019-05-09T04:24:57.770Z,4.00
2019-05-09T04:25:58.364Z,4.20
2019-05-09T04:26:57.790Z,4.10
2019-05-09T04:27:58.454Z,3.70
2019-05-09T04:28:58.151Z,4.00
2019-05-09T04:29:57.842Z,3.80
2019-05-09T04:30:58.213Z,3.50
2019-05-09T04:31:57.899Z,3.80
2019-05-09T04:32:58.223Z,4.10
2019-05-09T04:33:57.954Z,3.60
2019-05-09T04:34:57.983Z,3.20
2019-05-09T04:35:58.065Z,3.00
2019-05-09T04:36:58.038Z,3.80
2019-05-09T04:37:58.459Z,4.00
2019-05-09T04:38:58.093Z,3.70
2019-05-09T04:39:59.474Z,4.50
2019-05-09T04:40:58.525Z,3.40
2019-05-09T04:42:03.479Z,3.80
2019-05-09T04:43:10.846Z,3.50
2019-05-09T04:43:58.237Z,3.20
2019-05-09T04:45:03.190Z,3.80
2019-05-09T04:45:58.295Z,3.90
2019-05-09T04:47:00.073Z,4.00
2019-05-09T04:47:58.349Z,3.30
2019-05-09T04:48:59.513Z,3.70
2019-05-09T04:49:58.513Z,3.40
2019-05-09T04:50:59.505Z,3.60
2019-05-09T04:51:58.506Z,3.50
2019-05-09T04:52:58.491Z,3.40
2019-05-09T04:53:58.518Z,3.40
2019-05-09T04:54:58.547Z,3.00
2019-05-09T04:55:58.575Z,2.90
2019-05-09T04:56:58.605Z,3.40
2019-05-09T04:58:00.190Z,3.80
2019-05-09T04:58:58.662Z,3.40
2019-05-09T04:59:58.690Z,3.30
2019-05-09T05:00:58.717Z,3.40
2019-05-09T05:01:58.746Z,2.80
2019-05-09T05:02:58.775Z,2.90
2019-05-09T05:03:58.803Z,2.50
2019-05-09T05:04:58.831Z,2.00
2019-05-09T05:05:58.867Z,2.20
2019-05-09T05:06:58.889Z,2.10
2019-05-09T05:07:58.918Z,2.00
2019-05-09T05:08:58.946Z,2.50
2019-05-09T05:09:58.973Z,2.10
2019-05-09T05:10:59.002Z,2.70
2019-05-09T05:11:59.033Z,1.90
2019-05-09T05:12:59.060Z,1.70
2019-05-09T05:13:59.088Z,1.80
2019-05-09T05:14:59.120Z,2.00
2019-05-09T05:15:59.147Z,2.10
2019-05-09T05:17:07.769Z,2.20
2019-05-09T05:17:59.203Z,2.40
2019-05-09T05:18:59.248Z,2.80
2019-05-09T05:19:59.261Z,2.50
2019-05-09T05:20:59.292Z,2.50
2019-05-09T05:21:59.321Z,2.20
2019-05-09T05:22:59.349Z,2.90
2019-05-09T05:23:59.377Z,2.50
2019-05-09T05:24:59.960Z,2.80
2019-05-09T05:25:59.435Z,3.00
2019-05-09T05:26:59.464Z,3.80
2019-05-09T05:27:59.496Z,3.80
2019-05-09T05:28:59.523Z,7.80
2019-05-09T05:29:59.559Z,10.70
2019-05-09T05:30:59.582Z,9.50
2019-05-09T05:31:59.611Z,9.20
2019-05-09T05:32:59.641Z,7.50
2019-05-09T05:33:59.669Z,5.10
2019-05-09T05:34:59.700Z,4.30
2019-05-09T05:35:59.731Z,6.20
2019-05-09T05:36:59.760Z,5.50
2019-05-09T05:37:59.792Z,5.10
2019-05-09T05:38:59.818Z,5.50
2019-05-09T05:39:59.849Z,6.70
2019-05-09T05:40:59.878Z,4.80
2019-05-09T05:41:59.908Z,6.00
2019-05-09T05:43:02.094Z,5.30
2019-05-09T05:43:59.968Z,4.30
2019-05-09T05:44:59.997Z,4.10
2019-05-09T05:46:00.027Z,3.60
2019-05-09T05:47:00.057Z,4.00
2019-05-09T05:48:00.086Z,2.90
2019-05-09T05:49:00.153Z,3.10
2019-05-09T05:50:00.145Z,3.00
2019-05-09T05:51:00.181Z,2.70
2019-05-09T05:52:00.207Z,2.60
2019-05-09T05:53:00.242Z,2.50
2019-05-09T05:54:01.439Z,2.80
2019-05-09T05:55:00.377Z,2.30
2019-05-09T05:56:00.359Z,2.60
2019-05-09T05:58:00.385Z,1.40
2019-05-09T05:59:00.648Z,1.70
2019-05-09T06:00:00.446Z,1.90
2019-05-09T06:01:03.833Z,1.90
2019-05-09T06:02:00.507Z,4.30
2019-05-09T06:03:00.536Z,2.10
2019-05-09T06:04:00.566Z,2.50
2019-05-09T06:05:00.597Z,2.90
2019-05-09T06:06:00.630Z,2.10
2019-05-09T06:07:00.658Z,1.90
2019-05-09T06:08:00.694Z,1.60
2019-05-09T06:09:00.719Z,1.30
2019-05-09T06:10:00.748Z,1.10
2019-05-09T06:11:00.779Z,1.40
2019-05-09T06:12:00.828Z,1.70
2019-05-09T06:13:00.905Z,1.50
2019-05-09T06:14:08.638Z,1.20
2019-05-09T06:15:00.906Z,1.70
2019-05-09T06:16:01.285Z,1.30
2019-05-09T06:17:00.965Z,1.80
2019-05-09T06:18:00.999Z,1.70
2019-05-09T06:20:01.058Z,0.90
2019-05-09T06:21:01.088Z,1.00
2019-05-09T06:22:01.152Z,1.10
2019-05-09T06:23:01.151Z,0.80
2019-05-09T06:24:01.183Z,0.70
2019-05-09T06:25:01.243Z,1.10
2019-05-09T06:26:02.417Z,1.00
2019-05-09T06:28:01.309Z,0.90
2019-05-09T06:29:01.342Z,0.80
2019-05-09T06:30:01.378Z,1.00
2019-05-09T06:31:01.403Z,0.80
2019-05-09T06:32:01.435Z,0.80
2019-05-09T06:33:04.706Z,0.90
2019-05-09T06:34:01.502Z,0.90
2019-05-09T06:35:01.532Z,1.10
2019-05-09T06:36:01.561Z,1.10
2019-05-09T06:37:03.194Z,0.90
2019-05-09T06:38:01.630Z,0.90
2019-05-09T06:39:01.659Z,0.70
2019-05-09T06:40:01.730Z,0.80
2019-05-09T06:41:01.720Z,0.80
2019-05-09T06:42:01.752Z,1.00
2019-05-09T06:43:01.798Z,0.70
2019-05-09T06:44:13.560Z,0.90
2019-05-09T06:45:01.849Z,0.80
2019-05-09T06:46:01.880Z,0.80
2019-05-09T06:48:01.945Z,1.20
2019-05-09T06:49:20.193Z,1.10
2019-05-09T06:50:02.409Z,1.30
2019-05-09T06:52:02.308Z,1.10
2019-05-09T06:53:02.739Z,1.00
2019-05-09T06:54:02.164Z,1.10
2019-05-09T06:55:02.445Z,1.60
2019-05-09T06:58:02.255Z,1.00
2019-05-09T06:59:02.286Z,0.80
2019-05-09T07:00:02.317Z,1.00
2019-05-09T07:01:02.349Z,1.10
2019-05-09T07:02:02.416Z,0.90
2019-05-09T07:03:02.410Z,1.10
2019-05-09T07:04:02.776Z,1.10
2019-05-09T07:05:02.472Z,1.30
2019-05-09T07:07:02.535Z,1.80
2019-05-09T07:08:02.593Z,1.30
2019-05-09T07:09:02.626Z,1.10
2019-05-09T07:10:02.626Z,1.60
2019-05-09T07:11:02.658Z,1.40
2019-05-09T07:12:02.693Z,0.90
2019-05-09T07:13:02.719Z,1.10
2019-05-09T07:14:02.749Z,1.10
2019-05-09T07:15:02.780Z,1.00
2019-05-09T07:16:02.811Z,1.70
2019-05-09T07:17:02.842Z,1.40
2019-05-09T07:18:02.872Z,1.40
2019-05-09T07:19:02.903Z,1.30
2019-05-09T07:20:02.939Z,1.00
2019-05-09T07:21:02.966Z,1.10
2019-05-09T07:22:03.331Z,1.60
2019-05-09T07:23:03.028Z,1.30
2019-05-09T07:25:09.774Z,1.40
2019-05-09T07:26:03.143Z,1.50
2019-05-09T07:27:03.176Z,3.30
2019-05-09T07:28:03.438Z,8.80
2019-05-09T07:29:03.485Z,6.30
2019-05-09T07:30:03.454Z,1.70
2019-05-09T07:31:03.513Z,2.00
2019-05-09T07:32:04.256Z,1.20
2019-05-09T07:34:03.408Z,1.00
2019-05-09T07:37:03.470Z,1.00
2019-05-09T07:38:03.501Z,0.90
2019-05-09T07:39:03.534Z,0.90
2019-05-09T07:40:03.566Z,1.00
2019-05-09T07:41:03.598Z,0.80
2019-05-09T07:42:03.628Z,1.00
2019-05-09T07:43:03.661Z,0.90
2019-05-09T07:44:03.693Z,0.80
2019-05-09T07:45:03.730Z,0.70
2019-05-09T07:46:03.761Z,0.80
2019-05-09T07:47:03.791Z,0.70
2019-05-09T07:48:03.822Z,0.70
2019-05-09T07:49:03.858Z,0.70
2019-05-09T07:50:03.889Z,0.80
2019-05-09T07:51:03.919Z,0.70
2019-05-09T07:52:06.617Z,0.80
2019-05-09T07:53:03.986Z,0.70
2019-05-09T07:54:20.071Z,0.90
2019-05-09T07:55:04.049Z,0.80
2019-05-09T07:56:04.081Z,0.80
2019-05-09T07:57:05.327Z,0.80
2019-05-09T08:01:04.245Z,0.70
2019-05-09T08:02:04.321Z,0.70
2019-05-09T08:03:04.340Z,0.60
2019-05-09T08:04:04.371Z,0.70
2019-05-09T08:05:04.713Z,0.60
2019-05-09T08:06:04.438Z,0.80
2019-05-09T08:07:04.443Z,0.80
2019-05-09T08:08:04.474Z,1.10
2019-05-09T08:09:04.506Z,0.80
2019-05-09T08:10:04.538Z,0.90
2019-05-09T08:11:04.571Z,0.90
2019-05-09T08:13:07.996Z,0.80
2019-05-09T08:16:04.770Z,0.80
2019-05-09T08:20:04.869Z,0.80
2019-05-09T08:21:04.899Z,0.80
2019-05-09T08:22:04.931Z,0.80
2019-05-09T08:23:04.968Z,0.70
2019-05-09T08:24:04.999Z,0.90
2019-05-09T08:25:05.034Z,0.70
2019-05-09T08:26:05.277Z,0.80
2019-05-09T08:27:05.134Z,0.70
2019-05-09T08:28:05.134Z,0.70
2019-05-09T08:29:05.167Z,0.50
2019-05-09T08:30:07.703Z,0.70
2019-05-09T08:31:08.042Z,0.70
2019-05-09T08:32:07.271Z,0.60
2019-05-09T08:33:07.945Z,0.60
2019-05-09T08:34:05.340Z,0.70
2019-05-09T08:35:05.370Z,0.80
2019-05-09T08:36:08.310Z,0.70
2019-05-09T08:37:07.929Z,0.60
2019-05-09T08:38:05.472Z,0.70
2019-05-09T08:39:07.896Z,0.60
2019-05-09T08:40:07.757Z,0.70
2019-05-09T08:41:05.579Z,0.90
2019-05-09T08:42:08.545Z,0.80
2019-05-09T08:43:07.605Z,0.70
2019-05-09T08:44:07.841Z,0.60
2019-05-09T08:45:08.513Z,0.70
2019-05-09T08:46:07.730Z,0.80
2019-05-09T08:47:07.706Z,0.70
2019-05-09T08:48:05.816Z,0.60
2019-05-09T08:49:07.982Z,1.00
2019-05-09T08:50:08.014Z,0.80
2019-05-09T08:51:05.933Z,0.80
2019-05-09T08:52:12.721Z,0.80
2019-05-09T08:53:08.012Z,0.80
2019-05-09T08:54:06.081Z,0.70
2019-05-09T08:55:08.169Z,0.60
2019-05-09T08:56:08.447Z,0.70
2019-05-09T08:57:07.619Z,0.90
2019-05-09T08:58:07.941Z,0.70
2019-05-09T08:59:08.288Z,0.70
2019-05-09T09:00:08.210Z,0.70
2019-05-09T09:01:09.801Z,0.80
2019-05-09T09:02:14.872Z,0.70
2019-05-09T09:03:08.034Z,0.70
2019-05-09T09:04:08.130Z,0.60
2019-05-09T09:05:08.600Z,0.80
2019-05-09T09:06:08.220Z,0.70
2019-05-09T09:07:08.434Z,0.70
2019-05-09T09:08:08.307Z,0.90
2019-05-09T09:09:08.041Z,0.80
2019-05-09T09:10:08.424Z,0.70
2019-05-09T09:11:08.548Z,0.60
2019-05-09T09:12:25.189Z,0.70
2019-05-09T09:13:08.769Z,0.70
2019-05-09T09:14:07.863Z,0.70
2019-05-09T09:15:07.779Z,0.80
2019-05-09T09:16:15.836Z,0.60
2019-05-09T09:17:07.904Z,0.70
2019-05-09T09:18:08.589Z,0.80
2019-05-09T09:19:08.866Z,0.60
2019-05-09T09:20:07.724Z,1.00
2019-05-09T09:21:08.136Z,0.70
2019-05-09T09:22:08.872Z,0.90
2019-05-09T09:23:08.978Z,0.80
2019-05-09T09:24:08.747Z,0.70
2019-05-09T09:25:07.798Z,0.80
2019-05-09T09:26:08.040Z,0.80
2019-05-09T09:27:07.808Z,0.70
2019-05-09T09:28:08.832Z,0.70
2019-05-09T09:29:08.462Z,0.70
2019-05-09T09:30:17.772Z,0.70
2019-05-09T09:31:08.203Z,0.90
2019-05-09T09:32:08.284Z,0.70
2019-05-09T09:33:10.124Z,0.80
2019-05-09T09:34:08.039Z,0.80
2019-05-09T09:35:08.121Z,0.80
2019-05-09T09:36:08.765Z,0.80
2019-05-09T09:37:11.294Z,0.70
2019-05-09T09:38:09.425Z,0.60
2019-05-09T09:39:08.080Z,0.70
2019-05-09T09:40:08.722Z,0.70
2019-05-09T09:41:07.982Z,0.70
2019-05-09T09:42:09.039Z,0.70
2019-05-09T09:43:09.241Z,0.70
2019-05-09T09:44:08.805Z,0.80
2019-05-09T09:45:08.007Z,0.80
2019-05-09T09:46:14.410Z,0.80
2019-05-09T09:47:07.924Z,0.70
2019-05-09T09:48:09.012Z,0.70
2019-05-09T09:49:08.182Z,0.90
2019-05-09T09:50:08.744Z,1.10
2019-05-09T09:51:08.315Z,1.00
2019-05-09T09:52:08.718Z,1.10
2019-05-09T09:53:08.951Z,0.80
2019-05-09T09:54:08.920Z,1.10
2019-05-09T09:55:09.016Z,0.90
2019-05-09T09:56:08.869Z,0.80
2019-05-09T09:57:09.674Z,0.70
2019-05-09T09:58:08.476Z,0.90
2019-05-09T09:59:08.403Z,0.70
2019-05-09T10:00:08.388Z,0.90
2019-05-09T10:01:09.158Z,0.80
2019-05-09T10:02:10.319Z,0.80
2019-05-09T10:03:08.497Z,0.90
2019-05-09T10:04:19.530Z,1.00
2019-05-09T10:05:08.564Z,0.90
2019-05-09T10:06:08.633Z,0.90
2019-05-09T10:07:09.044Z,0.80
2019-05-09T10:08:13.646Z,1.00
2019-05-09T10:09:09.363Z,1.10
2019-05-09T10:10:08.743Z,1.00
2019-05-09T10:11:08.774Z,1.00
2019-05-09T10:12:09.132Z,1.00
2019-05-09T10:13:10.841Z,0.70
2019-05-09T10:14:08.883Z,0.90
2019-05-09T10:15:08.911Z,0.90
2019-05-09T10:16:24.589Z,0.80
2019-05-09T10:17:10.333Z,1.00
2019-05-09T10:18:09.017Z,0.90
2019-05-09T10:19:09.048Z,1.00
2019-05-09T10:20:09.108Z,1.30
2019-05-09T10:21:09.116Z,4.00
2019-05-09T10:22:09.150Z,2.00
2019-05-09T10:23:17.638Z,1.90
2019-05-09T10:24:09.218Z,1.30
2019-05-09T10:25:09.252Z,1.00
2019-05-09T10:26:09.286Z,1.20
2019-05-09T10:27:09.339Z,0.80
2019-05-09T10:28:09.353Z,0.90
2019-05-09T10:29:09.387Z,0.90
2019-05-09T10:30:09.421Z,1.00
2019-05-09T10:31:09.455Z,1.30
2019-05-09T10:32:09.488Z,1.30
2019-05-09T10:33:09.521Z,1.00
2019-05-09T10:34:11.178Z,0.90
2019-05-09T10:35:09.587Z,0.90
2019-05-09T10:36:09.622Z,1.00
2019-05-09T10:37:09.654Z,1.00
2019-05-09T10:38:09.689Z,1.20
2019-05-09T10:39:09.720Z,1.30
2019-05-09T10:40:09.755Z,1.10
2019-05-09T10:41:11.332Z,0.80
2019-05-09T10:42:09.820Z,1.00
2019-05-09T10:43:09.853Z,0.80
2019-05-09T10:44:09.887Z,1.10
2019-05-09T10:45:09.921Z,0.90
2019-05-09T10:46:09.953Z,0.80
2019-05-09T10:47:10.038Z,1.10
2019-05-09T10:48:10.065Z,0.90
2019-05-09T10:49:10.052Z,1.30
2019-05-09T10:50:10.085Z,0.80
2019-05-09T10:51:10.774Z,0.90
2019-05-09T10:52:11.190Z,0.80
2019-05-09T10:53:10.185Z,1.00
2019-05-09T10:54:10.217Z,0.90
2019-05-09T10:55:10.255Z,1.10
2019-05-09T10:56:10.333Z,1.00
2019-05-09T10:57:10.366Z,1.00
2019-05-09T10:58:10.348Z,0.80
2019-05-09T10:59:10.382Z,1.20
2019-05-09T11:00:10.439Z,1.10
2019-05-09T11:01:10.450Z,1.00
2019-05-09T11:03:10.537Z,0.80
2019-05-09T11:04:10.570Z,0.80
2019-05-09T11:05:10.808Z,1.00
2019-05-09T11:06:10.614Z,0.90
2019-05-09T11:07:10.665Z,1.00
2019-05-09T11:08:10.681Z,1.20
2019-05-09T11:09:10.720Z,1.10
2019-05-09T11:10:24.519Z,1.40
2019-05-09T11:11:10.789Z,0.90
2019-05-09T11:12:10.818Z,0.90
2019-05-09T11:13:10.851Z,1.00
2019-05-09T11:14:10.886Z,1.00
2019-05-09T11:15:10.919Z,0.90
2019-05-09T11:16:10.955Z,1.00
2019-05-09T11:17:18.165Z,0.90
2019-05-09T11:18:11.023Z,1.00
2019-05-09T11:19:11.059Z,0.90
2019-05-09T11:20:11.105Z,0.80
2019-05-09T11:21:11.129Z,1.00
2019-05-09T11:22:11.162Z,0.80
2019-05-09T11:23:11.198Z,1.00
2019-05-09T11:24:11.238Z,1.00
2019-05-09T11:25:11.268Z,1.10
2019-05-09T11:26:11.303Z,1.10
2019-05-09T11:27:11.441Z,0.80
2019-05-09T11:28:14.842Z,0.80
2019-05-09T11:29:11.410Z,0.90
2019-05-09T11:30:11.444Z,1.10
2019-05-09T11:31:11.756Z,0.80
2019-05-09T11:32:11.522Z,0.80
2019-05-09T11:33:11.551Z,0.80
2019-05-09T11:34:11.596Z,0.80
2019-05-09T11:35:11.627Z,0.80
2019-05-09T11:36:12.048Z,0.80
2019-05-09T11:37:11.691Z,0.90
2019-05-09T11:38:11.845Z,0.80
2019-05-09T11:39:11.760Z,0.70
2019-05-09T11:40:11.797Z,1.00
2019-05-09T11:41:11.834Z,0.80
2019-05-09T11:42:11.868Z,0.90
2019-05-09T11:43:11.905Z,1.00
2019-05-09T11:44:11.941Z,0.60
2019-05-09T11:45:11.980Z,0.70
2019-05-09T11:46:12.013Z,0.80
2019-05-09T11:47:28.470Z,0.80
2019-05-09T11:48:12.086Z,1.00
2019-05-09T11:49:12.125Z,0.80
2019-05-09T11:50:12.160Z,0.90
2019-05-09T11:51:12.197Z,0.90
2019-05-09T11:52:12.236Z,0.90
2019-05-09T11:53:12.270Z,0.80
2019-05-09T11:54:12.307Z,0.90
2019-05-09T11:55:28.448Z,0.80
2019-05-09T11:56:12.380Z,0.80
2019-05-09T11:57:12.417Z,0.80
2019-05-09T11:58:12.452Z,0.80
2019-05-09T11:59:12.489Z,0.90
2019-05-09T12:00:12.527Z,0.70
2019-05-09T12:01:12.566Z,0.80
2019-05-09T12:02:12.598Z,0.60
2019-05-09T12:03:12.633Z,0.80
2019-05-09T12:04:12.669Z,0.80
2019-05-09T12:05:12.708Z,0.90
2019-05-09T12:06:15.881Z,0.80
2019-05-09T12:07:12.790Z,1.00
2019-05-09T12:08:12.810Z,0.90
2019-05-09T12:09:14.873Z,1.00
2019-05-09T12:10:12.887Z,0.80
2019-05-09T12:11:12.919Z,0.90
2019-05-09T12:12:12.957Z,0.90
2019-05-09T12:13:12.998Z,1.00
2019-05-09T12:14:13.044Z,0.70
2019-05-09T12:15:13.063Z,0.90
2019-05-09T12:16:13.098Z,0.80
2019-05-09T12:17:13.135Z,0.70
2019-05-09T12:18:13.171Z,0.60
2019-05-09T12:19:13.206Z,0.70
2019-05-09T12:20:13.757Z,0.70
2019-05-09T12:21:13.279Z,0.80
2019-05-09T12:22:13.344Z,0.70
2019-05-09T12:23:13.344Z,0.80
2019-05-09T12:24:13.380Z,0.80
2019-05-09T12:25:13.419Z,0.80
2019-05-09T12:26:13.449Z,0.80
2019-05-09T12:27:13.484Z,0.70
2019-05-09T12:28:13.520Z,0.80
2019-05-09T12:29:13.555Z,0.60
2019-05-09T12:30:13.587Z,0.70
2019-05-09T12:31:13.623Z,0.70
2019-05-09T12:32:13.659Z,0.90
2019-05-09T12:33:13.716Z,0.80
2019-05-09T12:34:14.541Z,1.10
2019-05-09T12:35:13.760Z,0.80
2019-05-09T12:36:13.794Z,0.70
2019-05-09T12:37:13.830Z,0.70
2019-05-09T12:38:13.868Z,0.80
2019-05-09T12:39:13.896Z,1.00
2019-05-09T12:40:13.932Z,1.00
2019-05-09T12:41:13.965Z,1.00
2019-05-09T12:42:14.003Z,1.00
2019-05-09T12:43:14.032Z,0.90
2019-05-09T12:44:14.072Z,0.70
2019-05-09T12:45:14.099Z,1.10
2019-05-09T12:46:14.133Z,0.90
2019-05-09T12:47:14.186Z,0.80
2019-05-09T12:48:15.827Z,1.20
2019-05-09T12:49:14.233Z,0.90
2019-05-09T12:51:14.300Z,1.10
2019-05-09T12:52:14.335Z,1.30
2019-05-09T12:53:14.369Z,1.00
2019-05-09T12:54:14.401Z,1.10
2019-05-09T12:55:14.436Z,1.10
2019-05-09T12:56:14.468Z,0.90
2019-05-09T12:57:14.506Z,0.90
2019-05-09T12:58:14.536Z,0.90
2019-05-09T12:59:14.568Z,1.40
2019-05-09T13:00:14.604Z,0.90
2019-05-09T13:01:14.636Z,1.10
2019-05-09T13:02:14.669Z,1.40
2019-05-09T13:03:14.701Z,1.70
2019-05-09T13:04:14.736Z,3.50
2019-05-09T13:05:14.769Z,1.80
2019-05-09T13:06:14.824Z,2.00
2019-05-09T13:07:14.835Z,3.40
2019-05-09T13:08:14.867Z,3.90
2019-05-09T13:09:17.613Z,2.00
2019-05-09T13:10:14.935Z,1.50
2019-05-09T13:11:14.970Z,1.30
2019-05-09T13:12:17.871Z,1.30
2019-05-09T13:13:15.044Z,1.30
2019-05-09T13:14:15.083Z,1.10
2019-05-09T13:15:15.125Z,1.20
2019-05-09T13:16:17.525Z,1.00
2019-05-09T13:17:15.174Z,1.40
2019-05-09T13:18:25.002Z,1.90
2019-05-09T13:19:15.257Z,1.60
2019-05-09T13:20:17.683Z,1.70
2019-05-09T13:21:15.300Z,1.40
2019-05-09T13:23:17.754Z,1.20
2019-05-09T13:24:19.243Z,2.00
2019-05-09T13:25:15.461Z,1.90
2019-05-09T13:26:15.465Z,1.70
2019-05-09T13:27:15.498Z,1.60
2019-05-09T13:28:17.490Z,1.70
2019-05-09T13:29:15.567Z,1.50
2019-05-09T13:30:15.598Z,1.50
2019-05-09T13:31:18.056Z,1.40
2019-05-09T13:32:17.949Z,1.70
2019-05-09T13:33:15.697Z,1.40
2019-05-09T13:34:15.729Z,1.50
2019-05-09T13:35:19.507Z,1.40
2019-05-09T13:36:15.794Z,1.50
2019-05-09T13:37:18.591Z,1.50
2019-05-09T13:38:17.903Z,1.30
2019-05-09T13:39:17.970Z,1.30
2019-05-09T13:40:18.588Z,1.20
2019-05-09T13:41:17.691Z,1.20
2019-05-09T13:42:19.177Z,1.30
2019-05-09T13:43:18.796Z,1.10
2019-05-09T13:44:18.122Z,1.10
2019-05-09T13:45:18.450Z,1.20
2019-05-09T13:46:17.900Z,1.20
2019-05-09T13:47:17.890Z,1.30
2019-05-09T13:48:30.371Z,1.50
2019-05-09T13:49:16.220Z,1.30
2019-05-09T13:50:18.419Z,1.30
2019-05-09T13:51:18.476Z,1.40
2019-05-09T13:52:17.926Z,1.20
2019-05-09T13:53:16.351Z,1.20
2019-05-09T13:54:18.468Z,1.30
2019-05-09T13:55:17.768Z,1.50
2019-05-09T13:56:17.865Z,1.50
2019-05-09T13:57:18.845Z,1.60
2019-05-09T13:58:19.577Z,2.20
2019-05-09T13:59:18.523Z,1.70
2019-05-09T14:00:18.383Z,1.70
2019-05-09T14:01:17.553Z,1.90
2019-05-09T14:02:18.828Z,1.90
2019-05-09T14:03:18.123Z,1.90
2019-05-09T14:04:16.713Z,1.80
2019-05-09T14:05:18.931Z,1.50
2019-05-09T14:06:16.776Z,1.70
2019-05-09T14:07:19.037Z,1.70
2019-05-09T14:08:18.220Z,1.20
2019-05-09T14:09:19.642Z,1.20
2019-05-09T14:10:17.776Z,1.20
2019-05-09T14:11:19.230Z,0.90
2019-05-09T14:12:17.665Z,1.40
2019-05-09T14:13:19.078Z,1.80
2019-05-09T14:14:17.892Z,1.60
2019-05-09T14:15:18.426Z,1.60
2019-05-09T14:16:22.021Z,1.50
2019-05-09T14:17:19.094Z,1.10
2019-05-09T14:18:19.077Z,1.30
2019-05-09T14:19:45.184Z,1.00
2019-05-09T14:20:18.016Z,1.40
2019-05-09T14:21:21.493Z,1.30
2019-05-09T14:22:18.044Z,1.40
2019-05-09T14:23:19.122Z,1.00
2019-05-09T14:24:19.254Z,1.80
2019-05-09T14:25:19.595Z,1.10
2019-05-09T14:26:18.091Z,1.90
2019-05-09T14:27:18.704Z,1.80
2019-05-09T14:28:18.683Z,1.80
2019-05-09T14:29:20.541Z,1.40
2019-05-09T14:30:19.678Z,2.00
2019-05-09T14:31:18.665Z,1.40